sensor_id;sensor_type;location;lat;lon;timestamp;pressure;altitude;pressure_sealevel;temperature;humidity
27358;BME280;14831;50.474;7.616;2023-09-18T00:00:57;97470;;;19.4;81.5
27358;BME280;14831;50.474;7.616;2023-09-18T00:05:58;97460;;;19.3;81.9
27358;BME280;14831;50.474;7.616;2023-09-18T00:10:57;97450;;;19.2;82.3
27358;BME280;14831;50.474;7.616;2023-09-18T00:15:57;97440;;;19.1;82.8
27358;BME280;14831;50.474;7.616;2023-09-18T00:20:57;97440;;;19.1;82.4
27358;BME280;14831;50.474;7.616;2023-09-18T00:25:57;97420;;;19.1;82.0
27358;BME280;14831;50.474;7.616;2023-09-18T00:30:57;97430;;;19.1;82.5
27358;BME280;14831;50.474;7.616;2023-09-18T00:35:57;97430;;;18.9;83.5
27358;BME280;14831;50.474;7.616;2023-09-18T00:40:57;97420;;;18.8;83.7
27358;BME280;14831;50.474;7.616;2023-09-18T00:45:57;97410;;;18.7;84.1
27358;BME280;14831;50.474;7.616;2023-09-18T00:50:57;97410;;;18.7;84.3
27358;BME280;14831;50.474;7.616;2023-09-18T00:55:57;97390;;;18.7;84.4
27358;BME280;14831;50.474;7.616;2023-09-18T01:00:57;97390;;;18.7;83.8
27358;BME280;14831;50.474;7.616;2023-09-18T01:05:57;97390;;;19.0;82.0
27358;BME280;14831;50.474;7.616;2023-09-18T01:11:00;97390;;;19.1;80.6
27358;BME280;14831;50.474;7.616;2023-09-18T01:15:58;97380;;;19.3;79.1
27358;BME280;14831;50.474;7.616;2023-09-18T01:20:57;97390;;;19.5;78.2
27358;BME280;14831;50.474;7.616;2023-09-18T01:25:57;97400;;;19.6;77.5
27358;BME280;14831;50.474;7.616;2023-09-18T01:30:57;97400;;;19.7;77.2
27358;BME280;14831;50.474;7.616;2023-09-18T01:35:57;97390;;;19.9;76.3
27358;BME280;14831;50.474;7.616;2023-09-18T01:40:57;97400;;;20.0;75.7
27358;BME280;14831;50.474;7.616;2023-09-18T01:45:57;97400;;;20.2;75.7
27358;BME280;14831;50.474;7.616;2023-09-18T01:50:57;97450;;;20.4;74.3
27358;BME280;14831;50.474;7.616;2023-09-18T01:55:57;97500;;;20.8;72.6
27358;BME280;14831;50.474;7.616;2023-09-18T02:01:00;97510;;;20.7;75.9
27358;BME280;14831;50.474;7.616;2023-09-18T02:05:57;97520;;;19.8;82.1
27358;BME280;14831;50.474;7.616;2023-09-18T02:10:57;97500;;;19.3;85.8
27358;BME280;14831;50.474;7.616;2023-09-18T02:15:57;97480;;;19.0;87.4
27358;BME280;14831;50.474;7.616;2023-09-18T02:20:57;97470;;;18.7;89.2
27358;BME280;14831;50.474;7.616;2023-09-18T02:25:58;97440;;;18.5;91.5
27358;BME280;14831;50.474;7.616;2023-09-18T02:30:57;97370;;;18.3;90.7
27358;BME280;14831;50.474;7.616;2023-09-18T02:35:58;97320;;;18.2;91.1
27358;BME280;14831;50.474;7.616;2023-09-18T02:40:57;97290;;;18.0;92.5
27358;BME280;14831;50.474;7.616;2023-09-18T02:45:57;97290;;;18.0;92.4
27358;BME280;14831;50.474;7.616;2023-09-18T02:50:57;97300;;;17.8;93.7
27358;BME280;14831;50.474;7.616;2023-09-18T02:55:58;97320;;;17.8;94.7
27358;BME280;14831;50.474;7.616;2023-09-18T03:00:57;97320;;;17.7;94.8
27358;BME280;14831;50.474;7.616;2023-09-18T03:06:01;97320;;;17.8;94.8
27358;BME280;14831;50.474;7.616;2023-09-18T03:10:57;97300;;;17.8;94.6
27358;BME280;14831;50.474;7.616;2023-09-18T03:15:57;97320;;;17.8;94.6
27358;BME280;14831;50.474;7.616;2023-09-18T03:20:57;97330;;;17.9;93.9
27358;BME280;14831;50.474;7.616;2023-09-18T03:25:57;97330;;;17.9;94.5
27358;BME280;14831;50.474;7.616;2023-09-18T03:30:57;97340;;;17.8;94.7
27358;BME280;14831;50.474;7.616;2023-09-18T03:35:57;97320;;;17.8;94.9
27358;BME280;14831;50.474;7.616;2023-09-18T03:40:59;97340;;;17.7;94.6
27358;BME280;14831;50.474;7.616;2023-09-18T03:46:02;97340;;;17.7;95.1
27358;BME280;14831;50.474;7.616;2023-09-18T03:50:57;97340;;;17.6;95.0
27358;BME280;14831;50.474;7.616;2023-09-18T03:55:57;97330;;;17.5;95.3
27358;BME280;14831;50.474;7.616;2023-09-18T04:00:57;97320;;;17.4;95.7
27358;BME280;14831;50.474;7.616;2023-09-18T04:05:57;97320;;;17.4;96.3
27358;BME280;14831;50.474;7.616;2023-09-18T04:10:57;97320;;;17.3;96.3
27358;BME280;14831;50.474;7.616;2023-09-18T04:15:57;97310;;;17.3;97.0
27358;BME280;14831;50.474;7.616;2023-09-18T04:20:57;97300;;;17.3;96.7
27358;BME280;14831;50.474;7.616;2023-09-18T04:25:57;97290;;;17.3;96.4
27358;BME280;14831;50.474;7.616;2023-09-18T04:30:57;97270;;;17.3;95.8
27358;BME280;14831;50.474;7.616;2023-09-18T04:35:57;97250;;;17.3;95.4
27358;BME280;14831;50.474;7.616;2023-09-18T04:40:58;97240;;;17.4;94.8
27358;BME280;14831;50.474;7.616;2023-09-18T04:45:57;97230;;;17.4;94.4
27358;BME280;14831;50.474;7.616;2023-09-18T04:50:58;97230;;;17.5;94.2
27358;BME280;14831;50.474;7.616;2023-09-18T04:55:57;97220;;;17.6;92.8
27358;BME280;14831;50.474;7.616;2023-09-18T05:00:59;97200;;;17.6;92.9
27358;BME280;14831;50.474;7.616;2023-09-18T05:05:57;97200;;;17.8;90.2
27358;BME280;14831;50.474;7.616;2023-09-18T05:10:57;97240;;;17.8;91.3
27358;BME280;14831;50.474;7.616;2023-09-18T05:15:57;97260;;;17.7;92.2
27358;BME280;14831;50.474;7.616;2023-09-18T05:20:57;97260;;;17.7;91.7
27358;BME280;14831;50.474;7.616;2023-09-18T05:25:57;97270;;;17.7;92.0
27358;BME280;14831;50.474;7.616;2023-09-18T05:30:57;97290;;;17.7;92.1
27358;BME280;14831;50.474;7.616;2023-09-18T05:35:57;97320;;;17.7;92.7
27358;BME280;14831;50.474;7.616;2023-09-18T05:40:57;97320;;;17.7;92.4
27358;BME280;14831;50.474;7.616;2023-09-18T05:45:57;97300;;;17.7;92.4
27358;BME280;14831;50.474;7.616;2023-09-18T05:50:57;97290;;;17.7;92.5
27358;BME280;14831;50.474;7.616;2023-09-18T05:55:57;97290;;;17.7;92.7
27358;BME280;14831;50.474;7.616;2023-09-18T06:00:57;97300;;;17.7;92.4
27358;BME280;14831;50.474;7.616;2023-09-18T06:05:57;97310;;;17.8;92.5
27358;BME280;14831;50.474;7.616;2023-09-18T06:10:57;97320;;;17.8;92.0
27358;BME280;14831;50.474;7.616;2023-09-18T06:15:57;97290;;;17.8;91.8
27358;BME280;14831;50.474;7.616;2023-09-18T06:20:57;97280;;;17.8;91.7
27358;BME280;14831;50.474;7.616;2023-09-18T06:25:57;97300;;;17.8;91.9
27358;BME280;14831;50.474;7.616;2023-09-18T06:30:57;97300;;;17.9;91.4
27358;BME280;14831;50.474;7.616;2023-09-18T06:35:57;97280;;;17.9;90.4
27358;BME280;14831;50.474;7.616;2023-09-18T06:40:57;97310;;;17.9;90.5
27358;BME280;14831;50.474;7.616;2023-09-18T06:45:57;97310;;;18.0;89.9
27358;BME280;14831;50.474;7.616;2023-09-18T06:50:57;97320;;;18.0;89.9
27358;BME280;14831;50.474;7.616;2023-09-18T06:55:57;97320;;;18.0;89.5
27358;BME280;14831;50.474;7.616;2023-09-18T07:00:57;97350;;;18.1;89.6
27358;BME280;14831;50.474;7.616;2023-09-18T07:05:57;97350;;;18.1;89.3
27358;BME280;14831;50.474;7.616;2023-09-18T07:10:57;97340;;;18.1;89.1
27358;BME280;14831;50.474;7.616;2023-09-18T07:15:57;97340;;;18.1;88.4
27358;BME280;14831;50.474;7.616;2023-09-18T07:20:57;97350;;;18.1;88.5
27358;BME280;14831;50.474;7.616;2023-09-18T07:25:57;97340;;;18.1;89.3
27358;BME280;14831;50.474;7.616;2023-09-18T07:31:02;97350;;;18.0;88.5
27358;BME280;14831;50.474;7.616;2023-09-18T07:35:57;97360;;;18.0;88.9
27358;BME280;14831;50.474;7.616;2023-09-18T07:40:57;97370;;;18.0;89.0
27358;BME280;14831;50.474;7.616;2023-09-18T07:45:57;97390;;;17.9;89.2
27358;BME280;14831;50.474;7.616;2023-09-18T07:50:57;97370;;;17.9;89.4
27358;BME280;14831;50.474;7.616;2023-09-18T07:55:58;97380;;;17.9;88.7
27358;BME280;14831;50.474;7.616;2023-09-18T08:00:57;97370;;;18.0;89.0
27358;BME280;14831;50.474;7.616;2023-09-18T08:05:57;97400;;;18.0;88.6
27358;BME280;14831;50.474;7.616;2023-09-18T08:10:57;97420;;;18.0;88.0
27358;BME280;14831;50.474;7.616;2023-09-18T08:15:57;97410;;;18.0;88.1
27358;BME280;14831;50.474;7.616;2023-09-18T08:20:57;97400;;;18.0;88.2
27358;BME280;14831;50.474;7.616;2023-09-18T08:25:57;97400;;;18.1;87.9
27358;BME280;14831;50.474;7.616;2023-09-18T08:30:57;97420;;;18.1;88.0
27358;BME280;14831;50.474;7.616;2023-09-18T08:35:57;97430;;;18.0;88.1
27358;BME280;14831;50.474;7.616;2023-09-18T08:40:58;97430;;;18.0;88.3
27358;BME280;14831;50.474;7.616;2023-09-18T08:45:57;97430;;;18.0;88.5
27358;BME280;14831;50.474;7.616;2023-09-18T08:50:57;97440;;;18.0;88.2
27358;BME280;14831;50.474;7.616;2023-09-18T08:55:57;97430;;;18.0;88.7
27358;BME280;14831;50.474;7.616;2023-09-18T09:00:57;97430;;;18.0;88.9
27358;BME280;14831;50.474;7.616;2023-09-18T09:05:57;97450;;;18.0;88.3
27358;BME280;14831;50.474;7.616;2023-09-18T09:10:57;97450;;;18.1;88.4
27358;BME280;14831;50.474;7.616;2023-09-18T09:15:58;97450;;;18.1;88.4
27358;BME280;14831;50.474;7.616;2023-09-18T09:20:58;97450;;;18.1;87.8
27358;BME280;14831;50.474;7.616;2023-09-18T09:26:11;97450;;;18.2;87.5
27358;BME280;14831;50.474;7.616;2023-09-18T09:31:01;97460;;;18.2;87.4
27358;BME280;14831;50.474;7.616;2023-09-18T09:35:57;97440;;;18.3;87.0
27358;BME280;14831;50.474;7.616;2023-09-18T09:40:58;97440;;;18.3;86.5
27358;BME280;14831;50.474;7.616;2023-09-18T09:45:58;97440;;;18.3;86.7
27358;BME280;14831;50.474;7.616;2023-09-18T09:50:58;97440;;;18.3;86.7
27358;BME280;14831;50.474;7.616;2023-09-18T09:55:57;97450;;;18.3;86.6
27358;BME280;14831;50.474;7.616;2023-09-18T10:00:58;97450;;;18.2;87.0
27358;BME280;14831;50.474;7.616;2023-09-18T10:05:57;97450;;;18.2;87.2
27358;BME280;14831;50.474;7.616;2023-09-18T10:11:00;97450;;;18.2;87.1
27358;BME280;14831;50.474;7.616;2023-09-18T10:15:58;97450;;;18.2;87.0
27358;BME280;14831;50.474;7.616;2023-09-18T10:21:00;97450;;;18.3;87.0
27358;BME280;14831;50.474;7.616;2023-09-18T10:25:58;97470;;;18.2;86.9
27358;BME280;14831;50.474;7.616;2023-09-18T10:30:57;97480;;;18.2;86.9
27358;BME280;14831;50.474;7.616;2023-09-18T10:35:57;97490;;;18.2;87.0
27358;BME280;14831;50.474;7.616;2023-09-18T10:40:57;97480;;;18.2;87.0
27358;BME280;14831;50.474;7.616;2023-09-18T10:45:57;97480;;;18.3;86.4
27358;BME280;14831;50.474;7.616;2023-09-18T10:50:57;97460;;;18.4;86.4
27358;BME280;14831;50.474;7.616;2023-09-18T10:55:57;97470;;;18.7;86.3
27358;BME280;14831;50.474;7.616;2023-09-18T11:00:59;97470;;;18.8;85.9
27358;BME280;14831;50.474;7.616;2023-09-18T11:06:05;97460;;;18.9;84.7
27358;BME280;14831;50.474;7.616;2023-09-18T11:10:58;97450;;;19.0;84.2
27358;BME280;14831;50.474;7.616;2023-09-18T11:15:59;97470;;;19.0;84.9
27358;BME280;14831;50.474;7.616;2023-09-18T11:21:13;97450;;;19.0;83.7
27358;BME280;14831;50.474;7.616;2023-09-18T11:25:57;97450;;;19.2;83.5
27358;BME280;14831;50.474;7.616;2023-09-18T11:30:58;97450;;;19.2;83.5
27358;BME280;14831;50.474;7.616;2023-09-18T11:36:02;97440;;;19.3;82.0
27358;BME280;14831;50.474;7.616;2023-09-18T11:40:57;97430;;;19.6;82.2
27358;BME280;14831;50.474;7.616;2023-09-18T11:45:58;97440;;;19.8;80.6
27358;BME280;14831;50.474;7.616;2023-09-18T11:50:58;97430;;;20.2;80.9
27358;BME280;14831;50.474;7.616;2023-09-18T11:55:57;97450;;;20.4;77.9
27358;BME280;14831;50.474;7.616;2023-09-18T12:00:57;97460;;;20.6;78.1
27358;BME280;14831;50.474;7.616;2023-09-18T12:05:58;97470;;;20.0;78.9
27358;BME280;14831;50.474;7.616;2023-09-18T12:10:58;97450;;;20.4;77.5
27358;BME280;14831;50.474;7.616;2023-09-18T12:15:58;97430;;;20.6;76.6
27358;BME280;14831;50.474;7.616;2023-09-18T12:20:57;97450;;;20.8;76.1
27358;BME280;14831;50.474;7.616;2023-09-18T12:25:58;97470;;;20.7;76.9
27358;BME280;14831;50.474;7.616;2023-09-18T12:30:57;97460;;;20.4;76.9
27358;BME280;14831;50.474;7.616;2023-09-18T12:35:57;97450;;;20.5;76.2
27358;BME280;14831;50.474;7.616;2023-09-18T12:40:57;97450;;;21.6;73.1
27358;BME280;14831;50.474;7.616;2023-09-18T12:45:57;97430;;;21.5;72.0
27358;BME280;14831;50.474;7.616;2023-09-18T12:51:02;97440;;;21.5;73.5
27358;BME280;14831;50.474;7.616;2023-09-18T12:56:05;97430;;;21.8;71.1
27358;BME280;14831;50.474;7.616;2023-09-18T13:00:57;97440;;;21.8;69.5
27358;BME280;14831;50.474;7.616;2023-09-18T13:06:07;97440;;;21.6;69.0
27358;BME280;14831;50.474;7.616;2023-09-18T13:10:57;97430;;;21.7;69.5
27358;BME280;14831;50.474;7.616;2023-09-18T13:15:57;97420;;;21.7;69.5
27358;BME280;14831;50.474;7.616;2023-09-18T13:20:57;97410;;;21.9;69.0
27358;BME280;14831;50.474;7.616;2023-09-18T13:25:59;97410;;;21.9;68.1
27358;BME280;14831;50.474;7.616;2023-09-18T13:30:58;97410;;;22.4;68.0
27358;BME280;14831;50.474;7.616;2023-09-18T13:35:58;97420;;;22.5;67.6
27358;BME280;14831;50.474;7.616;2023-09-18T13:40:57;97410;;;22.4;67.4
27358;BME280;14831;50.474;7.616;2023-09-18T13:45:57;97410;;;22.4;69.5
27358;BME280;14831;50.474;7.616;2023-09-18T13:50:57;97420;;;22.3;66.8
27358;BME280;14831;50.474;7.616;2023-09-18T13:55:57;97410;;;22.4;66.3
27358;BME280;14831;50.474;7.616;2023-09-18T14:00:57;97410;;;22.5;66.2
27358;BME280;14831;50.474;7.616;2023-09-18T14:05:57;97400;;;22.5;66.0
27358;BME280;14831;50.474;7.616;2023-09-18T14:10:57;97390;;;22.9;64.3
27358;BME280;14831;50.474;7.616;2023-09-18T14:15:57;97380;;;22.5;64.1
27358;BME280;14831;50.474;7.616;2023-09-18T14:20:57;97370;;;22.5;63.6
27358;BME280;14831;50.474;7.616;2023-09-18T14:25:57;97370;;;22.6;63.0
27358;BME280;14831;50.474;7.616;2023-09-18T14:30:57;97360;;;22.7;62.2
27358;BME280;14831;50.474;7.616;2023-09-18T14:35:57;97370;;;22.7;62.7
27358;BME280;14831;50.474;7.616;2023-09-18T14:40:57;97370;;;22.7;61.9
27358;BME280;14831;50.474;7.616;2023-09-18T14:45:57;97360;;;22.5;62.4
27358;BME280;14831;50.474;7.616;2023-09-18T14:50:57;97360;;;22.6;60.9
27358;BME280;14831;50.474;7.616;2023-09-18T14:55:57;97350;;;22.5;60.6
27358;BME280;14831;50.474;7.616;2023-09-18T15:00:57;97340;;;22.6;61.3
27358;BME280;14831;50.474;7.616;2023-09-18T15:05:57;97340;;;22.6;60.9
27358;BME280;14831;50.474;7.616;2023-09-18T15:10:57;97330;;;22.8;60.7
27358;BME280;14831;50.474;7.616;2023-09-18T15:15:58;97330;;;22.7;58.8
27358;BME280;14831;50.474;7.616;2023-09-18T15:20:57;97340;;;22.6;59.4
27358;BME280;14831;50.474;7.616;2023-09-18T15:25:57;97330;;;22.4;58.8
27358;BME280;14831;50.474;7.616;2023-09-18T15:30:57;97330;;;22.3;59.8
27358;BME280;14831;50.474;7.616;2023-09-18T15:35:57;97320;;;22.2;60.5
27358;BME280;14831;50.474;7.616;2023-09-18T15:40:57;97330;;;22.0;60.4
27358;BME280;14831;50.474;7.616;2023-09-18T15:45:57;97320;;;21.7;59.6
27358;BME280;14831;50.474;7.616;2023-09-18T15:50:57;97320;;;21.5;61.4
27358;BME280;14831;50.474;7.616;2023-09-18T15:55:57;97320;;;21.3;61.5
27358;BME280;14831;50.474;7.616;2023-09-18T16:00:57;97320;;;21.3;60.2
27358;BME280;14831;50.474;7.616;2023-09-18T16:05:57;97320;;;21.3;60.3
27358;BME280;14831;50.474;7.616;2023-09-18T16:10:57;97320;;;21.4;60.0
27358;BME280;14831;50.474;7.616;2023-09-18T16:15:57;97310;;;21.3;60.6
27358;BME280;14831;50.474;7.616;2023-09-18T16:20:57;97300;;;21.2;61.3
27358;BME280;14831;50.474;7.616;2023-09-18T16:25:57;97310;;;21.2;61.7
27358;BME280;14831;50.474;7.616;2023-09-18T16:30:57;97300;;;21.1;62.6
27358;BME280;14831;50.474;7.616;2023-09-18T16:35:57;97310;;;21.1;62.6
27358;BME280;14831;50.474;7.616;2023-09-18T16:40:57;97310;;;21.2;62.7
27358;BME280;14831;50.474;7.616;2023-09-18T16:45:57;97320;;;21.3;62.3
27358;BME280;14831;50.474;7.616;2023-09-18T16:50:57;97310;;;21.3;62.4
27358;BME280;14831;50.474;7.616;2023-09-18T16:55:57;97310;;;21.2;62.9
27358;BME280;14831;50.474;7.616;2023-09-18T17:00:57;97310;;;21.2;62.8
27358;BME280;14831;50.474;7.616;2023-09-18T17:05:57;97310;;;21.1;63.5
27358;BME280;14831;50.474;7.616;2023-09-18T17:10:57;97310;;;21.0;64.1
27358;BME280;14831;50.474;7.616;2023-09-18T17:15:57;97300;;;20.9;64.4
27358;BME280;14831;50.474;7.616;2023-09-18T17:20:57;97300;;;20.7;65.0
27358;BME280;14831;50.474;7.616;2023-09-18T17:25:58;97310;;;20.6;65.4
27358;BME280;14831;50.474;7.616;2023-09-18T17:30:57;97310;;;20.5;66.3
27358;BME280;14831;50.474;7.616;2023-09-18T17:35:57;97310;;;20.4;66.2
27358;BME280;14831;50.474;7.616;2023-09-18T17:40:57;97300;;;20.3;66.5
27358;BME280;14831;50.474;7.616;2023-09-18T17:45:57;97300;;;20.3;66.4
27358;BME280;14831;50.474;7.616;2023-09-18T17:50:57;97300;;;20.2;67.0
27358;BME280;14831;50.474;7.616;2023-09-18T17:55:57;97300;;;20.1;67.6
27358;BME280;14831;50.474;7.616;2023-09-18T18:00:57;97280;;;20.0;68.0
27358;BME280;14831;50.474;7.616;2023-09-18T18:05:57;97290;;;19.9;68.5
27358;BME280;14831;50.474;7.616;2023-09-18T18:10:58;97300;;;19.9;68.9
27358;BME280;14831;50.474;7.616;2023-09-18T18:15:57;97300;;;19.8;69.0
27358;BME280;14831;50.474;7.616;2023-09-18T18:20:57;97300;;;19.8;69.5
27358;BME280;14831;50.474;7.616;2023-09-18T18:25:57;97290;;;19.8;69.0
27358;BME280;14831;50.474;7.616;2023-09-18T18:30:57;97300;;;19.8;69.4
27358;BME280;14831;50.474;7.616;2023-09-18T18:35:57;97290;;;19.7;69.8
27358;BME280;14831;50.474;7.616;2023-09-18T18:40:57;97300;;;19.6;70.9
27358;BME280;14831;50.474;7.616;2023-09-18T18:45:57;97320;;;19.5;72.0
27358;BME280;14831;50.474;7.616;2023-09-18T18:50:59;97340;;;19.5;73.5
27358;BME280;14831;50.474;7.616;2023-09-18T18:55:57;97350;;;19.4;74.7
27358;BME280;14831;50.474;7.616;2023-09-18T19:00:58;97360;;;19.4;75.5
27358;BME280;14831;50.474;7.616;2023-09-18T19:05:57;97350;;;19.3;76.4
27358;BME280;14831;50.474;7.616;2023-09-18T19:10:57;97360;;;19.3;77.2
27358;BME280;14831;50.474;7.616;2023-09-18T19:15:57;97370;;;19.3;78.4
27358;BME280;14831;50.474;7.616;2023-09-18T19:20:57;97400;;;18.8;85.6
27358;BME280;14831;50.474;7.616;2023-09-18T19:25:57;97450;;;18.1;87.2
27358;BME280;14831;50.474;7.616;2023-09-18T19:30:57;97460;;;17.4;89.9
27358;BME280;14831;50.474;7.616;2023-09-18T19:35:58;97460;;;16.8;90.8
27358;BME280;14831;50.474;7.616;2023-09-18T19:40:57;97450;;;16.6;91.6
27358;BME280;14831;50.474;7.616;2023-09-18T19:45:57;97450;;;16.3;92.1
27358;BME280;14831;50.474;7.616;2023-09-18T19:50:57;97490;;;15.8;90.7
27358;BME280;14831;50.474;7.616;2023-09-18T19:55:57;97480;;;15.7;91.2
27358;BME280;14831;50.474;7.616;2023-09-18T20:00:57;97490;;;15.6;90.8
27358;BME280;14831;50.474;7.616;2023-09-18T20:05:57;97480;;;15.4;92.9
27358;BME280;14831;50.474;7.616;2023-09-18T20:10:57;97490;;;15.2;93.3
27358;BME280;14831;50.474;7.616;2023-09-18T20:15:57;97480;;;15.1;94.1
27358;BME280;14831;50.474;7.616;2023-09-18T20:20:57;97470;;;15.0;94.8
27358;BME280;14831;50.474;7.616;2023-09-18T20:25:57;97470;;;15.0;95.5
27358;BME280;14831;50.474;7.616;2023-09-18T20:30:57;97470;;;15.0;95.6
27358;BME280;14831;50.474;7.616;2023-09-18T20:35:57;97470;;;15.0;95.5
27358;BME280;14831;50.474;7.616;2023-09-18T20:40:57;97470;;;15.0;95.5
27358;BME280;14831;50.474;7.616;2023-09-18T20:45:57;97470;;;15.0;95.8
27358;BME280;14831;50.474;7.616;2023-09-18T20:50:57;97480;;;15.0;95.8
27358;BME280;14831;50.474;7.616;2023-09-18T20:55:57;97480;;;15.0;95.8
27358;BME280;14831;50.474;7.616;2023-09-18T21:00:58;97470;;;15.0;95.9
27358;BME280;14831;50.474;7.616;2023-09-18T21:05:57;97490;;;15.0;96.5
27358;BME280;14831;50.474;7.616;2023-09-18T21:10:57;97490;;;15.0;96.5
27358;BME280;14831;50.474;7.616;2023-09-18T21:15:57;97480;;;15.1;96.6
27358;BME280;14831;50.474;7.616;2023-09-18T21:20:57;97500;;;15.1;96.7
27358;BME280;14831;50.474;7.616;2023-09-18T21:25:57;97510;;;15.1;96.6
27358;BME280;14831;50.474;7.616;2023-09-18T21:31:06;97520;;;15.1;97.0
27358;BME280;14831;50.474;7.616;2023-09-18T21:35:57;97500;;;15.1;97.0
27358;BME280;14831;50.474;7.616;2023-09-18T21:40:57;97520;;;15.1;97.1
27358;BME280;14831;50.474;7.616;2023-09-18T21:45:57;97520;;;15.1;97.2
27358;BME280;14831;50.474;7.616;2023-09-18T21:50:57;97530;;;15.1;97.2
27358;BME280;14831;50.474;7.616;2023-09-18T21:55:57;97530;;;15.1;97.5
27358;BME280;14831;50.474;7.616;2023-09-18T22:01:02;97520;;;15.2;97.7
27358;BME280;14831;50.474;7.616;2023-09-18T22:05:57;97530;;;15.1;97.7
27358;BME280;14831;50.474;7.616;2023-09-18T22:10:57;97530;;;15.1;97.9
27358;BME280;14831;50.474;7.616;2023-09-18T22:15:57;97530;;;15.1;98.1
27358;BME280;14831;50.474;7.616;2023-09-18T22:20:57;97550;;;15.1;98.2
27358;BME280;14831;50.474;7.616;2023-09-18T22:25:57;97560;;;15.1;98.3
27358;BME280;14831;50.474;7.616;2023-09-18T22:30:57;97550;;;15.1;98.3
27358;BME280;14831;50.474;7.616;2023-09-18T22:35:57;97550;;;15.1;98.2
27358;BME280;14831;50.474;7.616;2023-09-18T22:55:58;97550;;;15.1;98.5
27358;BME280;14831;50.474;7.616;2023-09-18T23:00:58;97550;;;15.1;98.5
27358;BME280;14831;50.474;7.616;2023-09-18T23:05:58;97550;;;15.1;98.5
27358;BME280;14831;50.474;7.616;2023-09-18T23:10:58;97570;;;15.1;98.5
27358;BME280;14831;50.474;7.616;2023-09-18T23:15:57;97560;;;15.1;98.5
27358;BME280;14831;50.474;7.616;2023-09-18T23:20:57;97570;;;15.1;98.5
27358;BME280;14831;50.474;7.616;2023-09-18T23:25:57;97580;;;15.1;98.5
27358;BME280;14831;50.474;7.616;2023-09-18T23:30:57;97580;;;15.1;98.5
27358;BME280;14831;50.474;7.616;2023-09-18T23:35:57;97590;;;15.1;98.5
27358;BME280;14831;50.474;7.616;2023-09-18T23:40:57;97580;;;15.1;98.5
27358;BME280;14831;50.474;7.616;2023-09-18T23:45:57;97600;;;15.1;98.5
27358;BME280;14831;50.474;7.616;2023-09-18T23:50:57;97600;;;15.1;98.5
27358;BME280;14831;50.474;7.616;2023-09-18T23:55:57;97590;;;15.1;98.5
